createdAt,value
2018-11-21T00:02:35.633Z,50.10
2018-11-21T00:05:17.152Z,49.60
2018-11-21T00:07:58.490Z,50.10
2018-11-21T00:10:39.263Z,49.60
2018-11-21T00:13:20.567Z,49.30
2018-11-21T00:16:00.260Z,50.00
2018-11-21T00:18:40.964Z,49.60
2018-11-21T00:21:21.622Z,49.50
2018-11-21T00:24:02.639Z,49.50
2018-11-21T00:26:43.590Z,49.50
2018-11-21T00:29:25.096Z,49.50
2018-11-21T00:32:09.871Z,49.60
2018-11-21T00:34:49.735Z,49.50
2018-11-21T00:37:38.380Z,49.60
2018-11-21T00:40:19.484Z,49.60
2018-11-21T00:43:00.192Z,49.60
2018-11-21T00:45:39.807Z,49.60
2018-11-21T00:48:28.423Z,49.60
2018-11-21T00:51:09.619Z,50.00
2018-11-21T00:53:50.819Z,49.60
2018-11-21T00:56:31.487Z,49.60
2018-11-21T00:59:11.144Z,49.70
2018-11-21T01:01:59.746Z,49.60
2018-11-21T01:04:40.780Z,49.60
2018-11-21T01:07:22.011Z,49.60
2018-11-21T01:10:03.351Z,49.60
2018-11-21T01:12:44.676Z,49.60
2018-11-21T01:15:26.134Z,49.60
2018-11-21T01:18:07.741Z,49.70
2018-11-21T01:20:49.191Z,49.60
2018-11-21T01:23:29.919Z,49.70
2018-11-21T01:26:11.396Z,49.70
2018-11-21T01:28:52.999Z,49.70
2018-11-21T01:31:33.716Z,50.00
2018-11-21T01:34:14.374Z,49.70
2018-11-21T01:36:55.197Z,49.70
2018-11-21T01:39:36.248Z,49.70
2018-11-21T01:42:17.763Z,49.80
2018-11-21T01:44:58.576Z,49.60
2018-11-21T01:47:40.098Z,49.60
2018-11-21T01:50:21.432Z,50.30
2018-11-21T01:53:02.232Z,49.70
2018-11-21T01:55:41.948Z,49.70
2018-11-21T02:01:30.511Z,49.70
2018-11-21T02:04:11.895Z,49.70
2018-11-21T02:06:53.301Z,49.70
2018-11-21T02:09:34.492Z,49.70
2018-11-21T02:12:16.098Z,49.70
2018-11-21T02:14:57.463Z,49.70
2018-11-21T02:17:38.914Z,49.70
2018-11-21T02:20:20.164Z,49.70
2018-11-21T02:23:01.377Z,49.70
2018-11-21T02:25:42.538Z,49.80
2018-11-21T02:28:23.542Z,49.80
2018-11-21T02:31:03.237Z,50.30
2018-11-21T02:33:51.860Z,49.80
2018-11-21T02:36:32.804Z,49.70
2018-11-21T02:39:14.233Z,49.80
2018-11-21T02:41:55.638Z,49.80
2018-11-21T02:44:37.280Z,49.80
2018-11-21T02:47:18.604Z,49.80
2018-11-21T02:50:00.144Z,49.80
2018-11-21T02:52:40.980Z,49.80
2018-11-21T02:55:20.638Z,49.80
2018-11-21T03:01:03.321Z,49.80
2018-11-21T03:03:44.078Z,49.80
2018-11-21T03:06:25.520Z,49.80
2018-11-21T03:09:06.571Z,49.80
2018-11-21T03:11:48.140Z,49.90
2018-11-21T03:14:29.328Z,49.90
2018-11-21T03:17:10.699Z,49.90
2018-11-21T03:19:52.176Z,49.90
2018-11-21T03:22:33.112Z,49.90
2018-11-21T03:25:13.797Z,49.80
2018-11-21T03:27:55.245Z,49.80
2018-11-21T03:30:36.709Z,49.80
2018-11-21T03:33:18.112Z,49.80
2018-11-21T03:35:59.575Z,49.80
2018-11-21T03:38:41.113Z,49.80
2018-11-21T03:41:21.960Z,49.80
2018-11-21T03:44:02.687Z,49.80
2018-11-21T03:46:45.369Z,49.90
2018-11-21T03:49:26.147Z,50.40
2018-11-21T03:52:05.950Z,49.90
2018-11-21T03:54:46.821Z,49.80
2018-11-21T03:57:27.833Z,49.80
2018-11-21T04:00:08.790Z,49.90
2018-11-21T04:02:57.405Z,49.80
2018-11-21T04:05:38.489Z,49.80
2018-11-21T04:08:19.792Z,49.90
2018-11-21T04:10:59.568Z,49.80
2018-11-21T04:13:48.176Z,49.90
2018-11-21T04:16:29.697Z,49.80
2018-11-21T04:19:10.595Z,49.90
2018-11-21T04:21:51.248Z,49.90
2018-11-21T04:24:32.414Z,49.90
2018-11-21T04:27:13.045Z,49.90
2018-11-21T04:29:54.207Z,49.90
2018-11-21T04:32:35.044Z,49.90
2018-11-21T04:35:14.754Z,49.90
2018-11-21T04:38:03.360Z,49.90
2018-11-21T04:40:44.424Z,49.90
2018-11-21T04:43:25.963Z,49.90
2018-11-21T04:46:07.084Z,50.00
2018-11-21T04:48:47.844Z,49.90
2018-11-21T04:51:29.221Z,50.00
2018-11-21T04:54:09.993Z,50.00
2018-11-21T04:56:51.460Z,50.00
2018-11-21T04:59:32.792Z,50.00
2018-11-21T05:02:14.718Z,50.00
2018-11-21T05:04:54.346Z,50.00
2018-11-21T05:07:43.155Z,50.00
2018-11-21T05:10:23.903Z,50.00
2018-11-21T05:13:05.169Z,50.00
2018-11-21T05:15:46.751Z,50.00
2018-11-21T05:18:26.497Z,50.00
2018-11-21T05:21:15.115Z,50.00
2018-11-21T05:23:56.631Z,49.90
2018-11-21T05:26:37.558Z,49.90
2018-11-21T05:29:18.875Z,49.90
2018-11-21T05:31:58.513Z,49.90
2018-11-21T05:34:47.115Z,49.90
2018-11-21T05:37:28.602Z,49.90
2018-11-21T05:40:09.964Z,49.90
2018-11-21T05:42:51.444Z,50.00
2018-11-21T05:45:32.412Z,50.00
2018-11-21T05:48:13.571Z,50.00
2018-11-21T05:50:54.988Z,50.00
2018-11-21T05:53:36.321Z,50.00
2018-11-21T05:56:17.394Z,50.00
2018-11-21T05:58:58.730Z,50.00
2018-11-21T06:01:40.307Z,50.00
2018-11-21T06:04:21.830Z,50.00
2018-11-21T06:13:00.732Z,49.10
2018-11-21T06:16:15.529Z,49.80
2018-11-21T06:18:56.097Z,49.90
2018-11-21T06:21:36.433Z,50.00
2018-11-21T06:24:16.660Z,50.00
2018-11-21T06:27:00.957Z,50.00
2018-11-21T06:29:42.143Z,50.00
2018-11-21T06:32:22.453Z,50.00
2018-11-21T06:35:02.796Z,50.60
2018-11-21T06:37:43.779Z,50.00
2018-11-21T06:40:24.092Z,50.00
2018-11-21T06:43:04.984Z,50.00
2018-11-21T06:45:45.393Z,50.00
2018-11-21T06:48:25.776Z,50.00
2018-11-21T06:51:06.095Z,50.00
2018-11-21T06:53:46.784Z,50.00
2018-11-21T06:56:25.723Z,50.00
2018-11-21T06:59:13.514Z,50.00
2018-11-21T07:01:54.718Z,50.00
2018-11-21T07:04:35.801Z,50.00
2018-11-21T07:07:14.645Z,50.00
2018-11-21T07:10:02.453Z,50.00
2018-11-21T07:12:44.032Z,50.00
2018-11-21T07:15:24.768Z,50.00
2018-11-21T07:18:05.788Z,50.00
2018-11-21T07:20:46.944Z,50.00
2018-11-21T07:23:25.829Z,50.00
2018-11-21T07:26:05.228Z,49.90
2018-11-21T07:28:44.182Z,49.90
2018-11-21T07:31:24.854Z,50.00
2018-11-21T07:34:03.753Z,50.00
2018-11-21T07:36:44.486Z,49.90
2018-11-21T07:39:24.912Z,50.00
2018-11-21T07:42:05.499Z,49.90
2018-11-21T07:44:46.625Z,50.00
2018-11-21T07:47:27.424Z,49.90
2018-11-21T07:50:07.869Z,49.90
2018-11-21T07:52:48.247Z,49.90
2018-11-21T07:55:28.528Z,50.50
2018-11-21T07:58:14.583Z,49.90
2018-11-21T08:00:59.304Z,49.80
2018-11-21T08:03:44.779Z,49.80
2018-11-21T08:09:33.307Z,49.90
2018-11-21T08:12:33.137Z,49.80
2018-11-21T08:15:39.217Z,49.80
2018-11-21T08:18:42.022Z,49.70
2018-11-21T08:21:44.662Z,49.70
2018-11-21T08:24:47.989Z,49.60
2018-11-21T08:27:47.848Z,49.60
2018-11-21T08:30:26.754Z,49.50
2018-11-21T08:33:14.608Z,49.40
2018-11-21T08:35:53.516Z,49.50
2018-11-21T08:38:41.312Z,49.40
2018-11-21T08:41:22.433Z,49.30
2018-11-21T08:44:02.820Z,49.40
2018-11-21T08:46:43.529Z,49.40
2018-11-21T08:49:24.533Z,48.90
2018-11-21T08:52:05.740Z,49.20
2018-11-21T08:57:45.001Z,48.90
2018-11-21T09:00:25.289Z,49.10
2018-11-21T09:03:06.466Z,49.10
2018-11-21T09:05:47.404Z,49.10
2018-11-21T09:08:27.912Z,49.10
2018-11-21T09:11:08.162Z,49.20
2018-11-21T09:13:46.995Z,49.10
2018-11-21T09:16:34.784Z,49.10
2018-11-21T09:19:22.577Z,49.10
2018-11-21T09:22:10.463Z,49.60
2018-11-21T09:24:50.738Z,49.00
2018-11-21T09:27:29.560Z,49.00
2018-11-21T09:30:10.113Z,48.90
2018-11-21T09:32:52.549Z,49.00
2018-11-21T09:35:33.578Z,48.90
2018-11-21T09:38:14.236Z,48.80
2018-11-21T09:40:55.439Z,48.70
2018-11-21T09:43:35.757Z,48.30
2018-11-21T09:46:17.179Z,48.50
2018-11-21T09:49:02.476Z,48.30
2018-11-21T09:51:42.743Z,48.30
2018-11-21T09:54:23.032Z,48.30
2018-11-21T09:57:03.897Z,48.10
2018-11-21T09:59:44.255Z,48.10
2018-11-21T10:02:24.801Z,48.00
2018-11-21T10:05:06.426Z,48.00
2018-11-21T10:07:46.976Z,48.00
2018-11-21T10:10:27.298Z,48.60
2018-11-21T10:13:06.156Z,48.00
2018-11-21T10:15:46.744Z,48.00
2018-11-21T10:18:27.158Z,48.10
2018-11-21T10:21:09.496Z,48.30
2018-11-21T10:26:48.329Z,47.90
2018-11-21T10:29:28.796Z,48.40
2018-11-21T10:32:09.456Z,48.50
2018-11-21T10:34:50.441Z,48.50
2018-11-21T10:37:31.568Z,48.60
2018-11-21T10:40:12.711Z,48.60
2018-11-21T10:42:53.145Z,48.70
2018-11-21T10:45:33.986Z,48.70
2018-11-21T10:48:14.226Z,49.30
2018-11-21T10:50:54.457Z,48.70
2018-11-21T10:53:34.813Z,48.80
2018-11-21T10:56:15.877Z,48.80
2018-11-21T10:58:56.280Z,48.80
2018-11-21T11:01:55.706Z,48.70
2018-11-21T11:05:02.101Z,48.80
2018-11-21T11:08:01.512Z,48.80
2018-11-21T11:11:07.234Z,48.80
2018-11-21T11:14:07.168Z,48.80
2018-11-21T11:20:14.097Z,48.80
2018-11-21T11:23:14.270Z,48.90
2018-11-21T11:26:14.054Z,48.90
2018-11-21T11:29:13.597Z,48.90
2018-11-21T11:32:13.824Z,48.90
2018-11-21T11:35:13.160Z,48.90
2018-11-21T11:41:17.605Z,49.20
2018-11-21T11:44:17.394Z,48.90
2018-11-21T11:47:16.828Z,48.90
2018-11-21T11:50:16.382Z,48.90
2018-11-21T11:53:15.775Z,48.90
2018-11-21T11:56:17.951Z,48.90
2018-11-21T11:59:17.603Z,48.90
2018-11-21T12:02:17.848Z,48.90
2018-11-21T12:05:11.845Z,48.90
2018-11-21T12:08:18.023Z,48.90
2018-11-21T12:11:19.232Z,48.90
2018-11-21T12:14:21.781Z,48.90
2018-11-21T12:17:22.858Z,48.90
2018-11-21T12:20:22.390Z,48.90
2018-11-21T12:23:21.911Z,48.90
2018-11-21T12:26:21.979Z,48.90
2018-11-21T12:29:21.690Z,48.90
2018-11-21T12:32:28.585Z,48.90
2018-11-21T12:41:26.184Z,48.00
2018-11-21T12:47:43.047Z,48.80
2018-11-21T12:50:42.811Z,48.90
2018-11-21T12:53:33.424Z,48.90
2018-11-21T12:56:33.647Z,48.90
2018-11-21T12:59:36.514Z,49.00
2018-11-21T13:02:36.119Z,49.00
2018-11-21T13:05:36.216Z,49.00
2018-11-21T13:08:32.628Z,49.00
2018-11-21T13:11:35.264Z,49.00
2018-11-21T13:14:38.187Z,49.00
2018-11-21T13:17:38.245Z,49.00
2018-11-21T13:20:38.254Z,49.10
2018-11-21T13:23:38.033Z,49.10
2018-11-21T13:26:38.232Z,49.10
2018-11-21T13:29:38.404Z,49.20
2018-11-21T13:32:38.398Z,49.10
2018-11-21T13:35:38.619Z,49.10
2018-11-21T13:38:38.094Z,49.80
2018-11-21T13:41:22.220Z,49.20
2018-11-21T13:44:21.615Z,49.20
2018-11-21T13:47:11.159Z,49.30
2018-11-21T13:53:07.426Z,49.30
2018-11-21T13:55:48.290Z,49.50
2018-11-21T13:58:28.573Z,49.30
2018-11-21T14:01:08.893Z,49.90
2018-11-21T14:03:49.463Z,49.30
2018-11-21T14:06:29.754Z,49.40
2018-11-21T14:09:11.261Z,49.40
2018-11-21T14:11:51.897Z,49.30
2018-11-21T14:14:32.256Z,49.40
2018-11-21T14:17:11.099Z,49.40
2018-11-21T14:19:51.329Z,49.50
2018-11-21T14:22:31.765Z,49.50
2018-11-21T14:25:12.625Z,49.40
2018-11-21T14:27:53.344Z,49.50
2018-11-21T14:30:34.079Z,49.50
2018-11-21T14:33:14.964Z,49.60
2018-11-21T14:35:56.106Z,49.50
2018-11-21T14:38:36.173Z,49.60
2018-11-21T14:41:16.865Z,49.50
2018-11-21T14:43:57.775Z,49.50
2018-11-21T14:46:38.372Z,49.50
2018-11-21T14:49:18.814Z,49.60
2018-11-21T14:51:59.913Z,49.60
2018-11-21T14:54:40.324Z,49.60
2018-11-21T14:57:21.281Z,49.60
2018-11-21T15:00:02.335Z,49.60
2018-11-21T15:02:41.344Z,49.60
2018-11-21T15:05:29.139Z,49.60
2018-11-21T15:08:10.050Z,49.70
2018-11-21T15:10:50.420Z,49.60
2018-11-21T15:13:30.901Z,49.70
2018-11-21T15:16:11.342Z,49.60
2018-11-21T15:21:50.744Z,49.50
2018-11-21T15:24:31.560Z,50.40
2018-11-21T15:27:12.717Z,49.90
2018-11-21T15:29:54.185Z,49.80
2018-11-21T15:32:34.175Z,49.90
2018-11-21T15:35:14.717Z,50.00
2018-11-21T15:37:55.868Z,50.00
2018-11-21T15:40:36.592Z,50.00
2018-11-21T15:43:16.972Z,50.20
2018-11-21T15:45:55.891Z,50.10
2018-11-21T15:48:43.713Z,50.30
2018-11-21T15:51:24.730Z,50.20
2018-11-21T15:54:05.880Z,50.20
2018-11-21T15:56:46.255Z,50.30
2018-11-21T15:59:26.623Z,50.20
2018-11-21T16:02:05.737Z,50.20
2018-11-21T16:04:53.540Z,50.10
2018-11-21T16:07:33.948Z,50.30
2018-11-21T16:10:18.922Z,50.30
2018-11-21T16:12:54.869Z,50.30
2018-11-21T16:15:46.656Z,50.40
2018-11-21T16:18:27.795Z,50.30
2018-11-21T16:21:08.897Z,50.30
2018-11-21T16:23:49.650Z,50.40
2018-11-21T16:26:28.537Z,50.40
2018-11-21T16:29:16.344Z,50.40
2018-11-21T16:31:57.436Z,50.40
2018-11-21T16:34:38.281Z,50.40
2018-11-21T16:37:19.061Z,50.30
2018-11-21T16:39:59.401Z,51.10
2018-11-21T16:42:40.840Z,50.40
2018-11-21T16:45:23.076Z,50.40
2018-11-21T16:48:03.331Z,50.50
2018-11-21T16:50:44.144Z,50.40
2018-11-21T16:53:24.597Z,50.50
2018-11-21T16:56:04.985Z,50.50
2018-11-21T16:58:45.516Z,50.50
2018-11-21T17:01:26.280Z,50.50
2018-11-21T17:04:06.673Z,50.90
2018-11-21T17:06:47.028Z,50.50
2018-11-21T17:12:39.617Z,50.60
2018-11-21T17:15:21.929Z,50.50
2018-11-21T17:18:02.711Z,50.40
2018-11-21T17:20:44.512Z,50.50
2018-11-21T17:23:25.177Z,50.50
2018-11-21T17:26:06.036Z,50.50
2018-11-21T17:28:46.612Z,50.50
2018-11-21T17:31:26.928Z,50.50
2018-11-21T17:34:08.005Z,50.50
2018-11-21T17:36:48.953Z,50.50
2018-11-21T17:39:29.728Z,50.50
2018-11-21T17:42:10.328Z,50.60
2018-11-21T17:44:51.038Z,51.20
2018-11-21T17:47:32.157Z,50.60
2018-11-21T17:50:12.509Z,50.60
2018-11-21T17:52:54.976Z,50.60
2018-11-21T17:55:36.665Z,50.70
2018-11-21T17:58:17.817Z,50.70
2018-11-21T18:00:58.611Z,51.00
2018-11-21T18:03:39.036Z,50.70
2018-11-21T18:06:19.415Z,50.40
2018-11-21T18:09:00.026Z,50.70
2018-11-21T18:11:41.448Z,50.70
2018-11-21T18:14:20.410Z,50.70
2018-11-21T18:17:00.883Z,50.70
2018-11-21T18:19:41.737Z,50.70
2018-11-21T18:25:22.856Z,50.70
2018-11-21T18:28:04.224Z,50.70
2018-11-21T18:30:44.546Z,50.70
2018-11-21T18:33:25.765Z,50.70
2018-11-21T18:36:06.349Z,50.80
2018-11-21T18:38:45.168Z,50.70
2018-11-21T18:41:32.960Z,50.70
2018-11-21T18:44:13.757Z,50.70
2018-11-21T18:46:54.708Z,50.70
2018-11-21T18:49:35.028Z,50.70
2018-11-21T18:52:15.682Z,50.70
2018-11-21T18:54:56.187Z,50.70
2018-11-21T18:57:37.387Z,50.70
2018-11-21T19:00:18.340Z,50.70
2018-11-21T19:02:57.200Z,50.70
2018-11-21T19:05:45.081Z,50.70
2018-11-21T19:08:25.768Z,50.80
2018-11-21T19:11:06.809Z,50.70
2018-11-21T19:13:45.612Z,50.70
2018-11-21T19:16:26.541Z,50.80
2018-11-21T19:19:06.964Z,50.80
2018-11-21T19:21:45.876Z,50.80
2018-11-21T19:24:33.692Z,50.80
2018-11-21T19:27:14.269Z,50.80
2018-11-21T19:29:54.945Z,50.80
2018-11-21T19:32:33.861Z,50.80
2018-11-21T19:35:14.574Z,50.90
2018-11-21T19:37:55.995Z,50.90
2018-11-21T19:40:36.387Z,50.80
2018-11-21T19:43:16.668Z,50.90
2018-11-21T19:45:57.892Z,50.80
2018-11-21T19:48:39.114Z,50.90
2018-11-21T19:51:19.900Z,50.90
2018-11-21T19:54:01.492Z,50.80
2018-11-21T19:56:42.705Z,50.80
2018-11-21T19:59:23.419Z,50.90
2018-11-21T20:02:04.076Z,50.90
2018-11-21T20:04:44.739Z,50.80
2018-11-21T20:07:25.465Z,50.80
2018-11-21T20:10:05.929Z,50.90
2018-11-21T20:12:46.587Z,50.80
2018-11-21T20:15:28.455Z,51.00
2018-11-21T20:18:09.306Z,51.20
2018-11-21T20:20:50.500Z,51.40
2018-11-21T20:23:30.972Z,50.90
2018-11-21T20:26:11.969Z,50.90
2018-11-21T20:28:52.485Z,50.90
2018-11-21T20:31:33.379Z,50.90
2018-11-21T20:34:13.663Z,50.90
2018-11-21T20:36:52.514Z,50.90
2018-11-21T20:39:33.044Z,51.00
2018-11-21T20:42:13.708Z,51.00
2018-11-21T20:44:54.134Z,50.90
2018-11-21T20:47:34.912Z,50.90
2018-11-21T20:50:16.067Z,51.00
2018-11-21T20:52:54.856Z,50.90
2018-11-21T20:55:43.385Z,51.00
2018-11-21T21:04:21.010Z,50.10
2018-11-21T21:13:12.152Z,49.90
2018-11-21T21:15:51.043Z,50.70
2018-11-21T21:18:31.663Z,50.80
2018-11-21T21:21:15.819Z,50.90
2018-11-21T21:23:53.469Z,50.90
2018-11-21T21:26:34.541Z,50.90
2018-11-21T21:29:14.993Z,51.00
2018-11-21T21:31:53.798Z,51.00
2018-11-21T21:34:34.960Z,51.00
2018-11-21T21:37:16.028Z,50.90
2018-11-21T21:39:57.013Z,51.00
2018-11-21T21:42:35.880Z,51.00
2018-11-21T21:45:25.066Z,51.00
2018-11-21T21:48:05.986Z,50.90
2018-11-21T21:50:46.716Z,51.00
2018-11-21T21:53:27.865Z,51.00
2018-11-21T21:56:06.765Z,51.40
2018-11-21T21:58:54.575Z,51.00
2018-11-21T22:01:33.388Z,51.00
2018-11-21T22:04:21.292Z,51.00
2018-11-21T22:07:02.005Z,51.00
2018-11-21T22:09:42.194Z,51.00
2018-11-21T22:12:22.677Z,51.10
2018-11-21T22:15:03.039Z,51.00
2018-11-21T22:17:41.949Z,51.10
2018-11-21T22:20:29.744Z,51.10
2018-11-21T22:23:10.171Z,51.00
2018-11-21T22:25:50.555Z,51.00
2018-11-21T22:28:31.691Z,51.00
2018-11-21T22:31:12.414Z,51.00
2018-11-21T22:33:53.517Z,51.00
2018-11-21T22:36:34.696Z,51.00
2018-11-21T22:39:15.747Z,51.10
2018-11-21T22:41:55.983Z,51.10
2018-11-21T22:44:36.278Z,51.10
2018-11-21T22:47:16.997Z,51.10
2018-11-21T22:49:58.133Z,51.10
2018-11-21T22:52:39.305Z,51.10
2018-11-21T22:55:20.055Z,51.10
2018-11-21T22:58:00.584Z,51.10
2018-11-21T23:00:48.453Z,51.10
2018-11-21T23:03:27.254Z,51.10
2018-11-21T23:06:15.064Z,51.20
2018-11-21T23:08:56.237Z,51.20
2018-11-21T23:11:35.136Z,51.20
2018-11-21T23:14:22.954Z,51.20
2018-11-21T23:17:03.596Z,51.20
2018-11-21T23:19:44.302Z,51.10
2018-11-21T23:22:25.406Z,51.20
2018-11-21T23:25:06.904Z,51.20
2018-11-21T23:27:45.781Z,51.20
2018-11-21T23:30:26.468Z,51.20
2018-11-21T23:33:07.604Z,51.10
2018-11-21T23:35:48.632Z,51.20
2018-11-21T23:38:29.578Z,51.20
2018-11-21T23:41:09.883Z,51.20
2018-11-21T23:43:48.731Z,51.20
2018-11-21T23:46:36.543Z,51.30
2018-11-21T23:49:15.469Z,51.20
2018-11-21T23:52:03.263Z,51.10
2018-11-21T23:54:43.553Z,51.30
2018-11-21T23:57:24.917Z,51.20
